Time;durP1;ratioP1;P1;durP2;ratioP2;P2;SDS_P1;SDS_P2;PMS_P1;PMS_P2;Temp;Humidity;BMP_temperature;BMP_pressure;BME280_temperature;BME280_humidity;BME280_pressure;Samples;Min_cycle;Max_cycle;Signal;HPM_P1;HPM_P2
2023/07/07 00:00:07;;;;;;;0.57;0.32;;;22.80;50.30;;;;;;5114994;28;20035;-81
2023/07/07 00:02:33;;;;;;;0.52;0.40;;;22.80;50.50;;;;;;5097230;28;20080;-80
2023/07/07 00:05:00;;;;;;;0.20;0.20;;;22.70;50.90;;;;;;5113958;28;20110;-81
2023/07/07 00:07:26;;;;;;;2.03;0.90;;;22.70;51.20;;;;;;5115409;28;20525;-81
2023/07/07 00:09:52;;;;;;;0.30;0.30;;;22.70;51.20;;;;;;5096479;28;20389;-86
2023/07/07 00:12:18;;;;;;;0.28;0.28;;;22.80;51.40;;;;;;5096770;28;20483;-86
2023/07/07 00:14:44;;;;;;;;;;;22.70;51.50;;;;;;5114241;28;20050;-80
2023/07/07 00:17:11;;;;;;;1.65;1.00;;;22.80;51.20;;;;;;5096518;28;19915;-81
2023/07/07 00:19:37;;;;;;;1.23;1.13;;;22.70;51.30;;;;;;5096675;28;20036;-80
2023/07/07 00:22:06;;;;;;;0.85;0.75;;;22.70;51.70;;;;;;5113783;28;20088;-81
2023/07/07 00:24:53;;;;;;;2.70;0.50;;;22.70;51.50;;;;;;5113650;28;20032;-81
2023/07/07 00:27:20;;;;;;;0.50;0.30;;;22.70;50.90;;;;;;5096375;28;20035;-91
2023/07/07 00:29:46;;;;;;;0.85;0.47;;;22.70;50.60;;;;;;5113531;28;20032;-81
2023/07/07 00:32:12;;;;;;;0.68;0.68;;;22.80;50.40;;;;;;5096211;28;20123;-86
2023/07/07 00:34:38;;;;;;;;;;;22.80;50.40;;;;;;5114948;28;20024;-85
2023/07/07 00:37:04;;;;;;;1.13;0.40;;;22.80;50.10;;;;;;5113344;28;20332;-87
2023/07/07 00:39:30;;;;;;;1.63;0.77;;;22.80;49.70;;;;;;5096542;28;20031;-87
2023/07/07 00:41:56;;;;;;;;;;;22.80;50.50;;;;;;5096572;28;20034;-88
2023/07/07 00:44:30;;;;;;;1.58;1.48;;;22.80;49.70;;;;;;5113566;28;19947;-82
2023/07/07 00:46:56;;;;;;;0.68;0.50;;;22.80;50.50;;;;;;5095922;28;20122;-87
2023/07/07 00:49:24;;;;;;;1.13;0.68;;;22.80;50.80;;;;;;5096294;28;20027;-81
2023/07/07 00:51:56;;;;;;;1.45;0.43;;;22.80;51.00;;;;;;5095983;28;20039;-80
2023/07/07 00:54:41;;;;;;;0.63;0.55;;;22.80;51.00;;;;;;5113026;28;20087;-86
2023/07/07 00:57:07;;;;;;;1.25;0.50;;;22.80;51.00;;;;;;5112728;28;20031;-85
2023/07/07 00:59:38;;;;;;;;;;;22.80;51.00;;;;;;5113383;28;20042;-81
2023/07/07 01:02:14;;;;;;;1.35;0.63;;;22.80;50.70;;;;;;5112873;28;19915;-86
2023/07/07 01:04:48;;;;;;;0.47;0.40;;;22.80;50.80;;;;;;5114214;28;20050;-82
2023/07/07 01:07:40;;;;;;;0.75;0.63;;;22.80;50.70;;;;;;5112991;28;20031;-81
2023/07/07 01:10:06;;;;;;;0.47;0.47;;;22.80;50.80;;;;;;5112113;28;20048;-81
2023/07/07 01:12:33;;;;;;;0.47;0.40;;;22.80;51.00;;;;;;5095507;28;20475;-87
2023/07/07 01:14:59;;;;;;;0.40;0.40;;;22.80;50.60;;;;;;5113878;28;20032;-87
2023/07/07 01:18:03;;;;;;;0.30;0.30;;;22.80;50.70;;;;;;5114437;28;20035;-81
2023/07/07 01:21:01;;;;;;;2.28;0.60;;;22.80;52.10;;;;;;5113542;28;20048;-81
2023/07/07 01:24:05;;;;;;;0.30;0.30;;;22.70;52.90;;;;;;5112989;28;20039;-81
2023/07/07 01:27:28;;;;;;;1.13;0.43;;;22.70;53.00;;;;;;5113834;28;20039;-82
2023/07/07 01:30:32;;;;;;;0.57;0.40;;;22.60;53.20;;;;;;5113887;28;20126;-82
2023/07/07 01:33:05;;;;;;;0.88;0.43;;;22.60;53.70;;;;;;5112928;28;20043;-89
2023/07/07 01:35:31;;;;;;;0.90;0.40;;;22.50;54.10;;;;;;5112238;28;20027;-82
2023/07/07 01:38:01;;;;;;;1.10;0.45;;;22.50;54.40;;;;;;5095562;28;20035;-80
2023/07/07 01:40:52;;;;;;;1.98;0.40;;;22.50;54.50;;;;;;5095239;28;20032;-83
2023/07/07 01:43:30;;;;;;;1.00;0.88;;;22.50;54.30;;;;;;5112976;28;20036;-85
2023/07/07 01:46:54;;;;;;;1.67;0.63;;;22.50;54.70;;;;;;5095316;28;20118;-83
2023/07/07 01:49:44;;;;;;;0.35;0.35;;;22.40;54.40;;;;;;5113913;28;20069;-85
2023/07/07 01:53:07;;;;;;;0.52;0.50;;;22.40;54.60;;;;;;5095579;28;20371;-85
2023/07/07 01:55:47;;;;;;;1.00;0.55;;;22.40;54.60;;;;;;5116080;28;20039;-84
2023/07/07 01:58:17;;;;;;;0.20;0.20;;;22.40;54.60;;;;;;5116567;28;20080;-80
2023/07/07 02:00:44;;;;;;;1.27;0.70;;;22.40;54.70;;;;;;5099381;28;20443;-86
2023/07/07 02:03:11;;;;;;;0.55;0.30;;;22.40;55.00;;;;;;5116688;28;20046;-86
2023/07/07 02:05:37;;;;;;;2.20;0.30;;;22.30;56.00;;;;;;5099104;28;20541;-86
2023/07/07 02:08:04;;;;;;;0.25;0.20;;;22.30;56.20;;;;;;5116879;28;20070;-86
2023/07/07 02:10:31;;;;;;;1.25;0.57;;;22.20;56.00;;;;;;5115797;28;20112;-85
2023/07/07 02:12:57;;;;;;;2.42;0.82;;;22.20;56.60;;;;;;5116433;28;20053;-81
2023/07/07 02:15:23;;;;;;;0.30;0.30;;;22.20;56.80;;;;;;5115715;28;20116;-86
2023/07/07 02:17:50;;;;;;;0.20;0.20;;;22.20;56.90;;;;;;5116234;28;20480;-81
2023/07/07 02:20:16;;;;;;;0.15;0.15;;;22.10;56.40;;;;;;5115527;28;20119;-86
2023/07/07 02:22:43;;;;;;;1.15;0.82;;;22.10;56.60;;;;;;5116340;28;20036;-86
2023/07/07 02:25:10;;;;;;;0.35;0.35;;;22.10;57.20;;;;;;5116642;28;20032;-87
2023/07/07 02:27:36;;;;;;;1.02;0.68;;;22.10;57.30;;;;;;5115881;28;20450;-86
2023/07/07 02:30:03;;;;;;;0.52;0.38;;;22.10;57.60;;;;;;5115911;28;20070;-80
2023/07/07 02:32:29;;;;;;;0.40;0.22;;;22.10;57.30;;;;;;5115805;28;20036;-85
2023/07/07 02:34:58;;;;;;;;;;;22.10;57.80;;;;;;5116370;28;20165;-81
2023/07/07 02:37:24;;;;;;;0.30;0.30;;;22.10;57.60;;;;;;5098513;28;19958;-86
2023/07/07 02:39:50;;;;;;;0.40;0.32;;;22.10;57.80;;;;;;5115781;28;20039;-86
2023/07/07 02:42:16;;;;;;;;;;;22.10;57.70;;;;;;5099000;28;20468;-86
2023/07/07 02:44:42;;;;;;;0.80;0.60;;;22.20;57.20;;;;;;5115742;28;19920;-81
2023/07/07 02:47:09;;;;;;;;;;;22.20;57.40;;;;;;5098914;28;20035;-81
2023/07/07 02:49:35;;;;;;;0.30;0.30;;;22.10;57.10;;;;;;5115569;28;19945;-81
2023/07/07 02:52:03;;;;;;;0.52;0.40;;;22.10;57.80;;;;;;5098566;28;20602;-86
2023/07/07 02:54:29;;;;;;;2.00;0.63;;;22.00;59.20;;;;;;5115772;28;20043;-80
2023/07/07 02:56:55;;;;;;;;;;;21.80;60.60;;;;;;5115866;28;20032;-81
2023/07/07 02:59:21;;;;;;;0.60;0.38;;;21.80;60.10;;;;;;5115347;28;19927;-80
2023/07/07 03:01:47;;;;;;;1.00;0.63;;;21.80;60.80;;;;;;5115055;28;20058;-82
2023/07/07 03:04:14;;;;;;;;;;;21.80;60.60;;;;;;5115707;28;20035;-87
2023/07/07 03:06:40;;;;;;;;;;;21.70;59.60;;;;;;5098452;28;20018;-82
2023/07/07 03:09:07;;;;;;;0.38;0.28;;;21.70;59.20;;;;;;5115227;28;19919;-84
2023/07/07 03:11:34;;;;;;;2.60;0.85;;;21.60;61.40;;;;;;5114724;28;20052;-86
2023/07/07 03:14:00;;;;;;;2.20;1.15;;;21.60;62.30;;;;;;5098170;28;20028;-82
2023/07/07 03:19:13;;;;;;;0.25;0.25;;;21.40;62.40;;;;;;5115279;28;19961;-81
2023/07/07 03:21:39;;;;;;;0.80;0.30;;;21.40;61.60;;;;;;5114701;28;20441;-84
2023/07/07 03:24:06;;;;;;;;;;;21.40;62.40;;;;;;5116537;28;20472;-81
2023/07/07 03:26:32;;;;;;;0.80;0.55;;;21.30;61.60;;;;;;5097540;28;20462;-85
2023/07/07 03:28:58;;;;;;;;;;;21.30;62.80;;;;;;5115352;28;20093;-85
2023/07/07 03:31:27;;;;;;;1.25;1.10;;;21.30;62.20;;;;;;5115955;28;19915;-87
2023/07/07 03:33:58;;;;;;;0.30;0.30;;;21.30;62.10;;;;;;5115178;28;20063;-81
2023/07/07 03:36:27;;;;;;;1.35;1.10;;;21.40;61.80;;;;;;5114284;28;20115;-80
2023/07/07 03:38:55;;;;;;;0.60;0.60;;;21.40;61.40;;;;;;5097397;28;20042;-81
2023/07/07 03:41:26;;;;;;;0.50;0.50;;;21.40;61.70;;;;;;5115305;28;20063;-81
2023/07/07 03:43:53;;;;;;;0.45;0.30;;;21.40;62.10;;;;;;5114554;28;20031;-86
2023/07/07 03:46:22;;;;;;;0.73;0.60;;;21.40;61.70;;;;;;5114435;28;20031;-80
2023/07/07 03:48:50;;;;;;;0.52;0.43;;;21.50;61.70;;;;;;5114492;28;20056;-85
2023/07/07 03:51:18;;;;;;;1.35;0.75;;;21.50;61.60;;;;;;5096759;28;20036;-80
2023/07/07 03:53:45;;;;;;;0.93;0.45;;;21.50;61.50;;;;;;5115574;28;20034;-86
2023/07/07 03:56:12;;;;;;;2.17;0.50;;;21.50;61.40;;;;;;5113855;28;20061;-85
2023/07/07 03:58:38;;;;;;;0.20;0.20;;;21.50;61.40;;;;;;5097113;28;20027;-80
2023/07/07 04:01:09;;;;;;;0.90;0.73;;;21.60;61.30;;;;;;5113912;28;20040;-86
2023/07/07 04:03:36;;;;;;;0.50;0.40;;;21.60;61.20;;;;;;5097181;28;20100;-85
2023/07/07 04:06:03;;;;;;;0.73;0.40;;;21.60;61.00;;;;;;5096799;28;20134;-81
2023/07/07 04:08:30;;;;;;;0.30;0.20;;;21.60;60.60;;;;;;5096867;28;20027;-85
2023/07/07 04:11:34;;;;;;;1.70;0.93;;;21.60;61.20;;;;;;5114548;28;20040;-80
2023/07/07 04:14:01;;;;;;;1.80;0.52;;;21.60;61.10;;;;;;5096993;28;20510;-81
2023/07/07 04:16:27;;;;;;;0.30;0.30;;;21.60;61.50;;;;;;5114446;28;20035;-85
2023/07/07 04:18:55;;;;;;;0.93;0.52;;;21.60;62.10;;;;;;5113803;28;20043;-86
2023/07/07 04:21:41;;;;;;;0.20;0.20;;;21.50;62.80;;;;;;5113410;28;20059;-81
2023/07/07 04:24:07;;;;;;;1.75;1.38;;;21.50;63.20;;;;;;5113896;28;20036;-85
2023/07/07 04:26:34;;;;;;;;;;;21.50;63.00;;;;;;5097050;28;20420;-80
2023/07/07 04:29:01;;;;;;;0.55;0.22;;;21.50;62.60;;;;;;5113510;28;19923;-80
2023/07/07 04:31:29;;;;;;;2.65;1.30;;;21.50;62.80;;;;;;5084201;28;20040;-80
2023/07/07 04:33:55;;;;;;;0.65;0.40;;;21.50;63.00;;;;;;5092838;28;20059;-86
2023/07/07 04:36:22;;;;;;;0.60;0.50;;;21.50;63.40;;;;;;5092480;28;20543;-80
2023/07/07 04:38:49;;;;;;;2.92;0.70;;;21.50;63.50;;;;;;5076159;28;20485;-80
2023/07/07 04:41:19;;;;;;;0.95;0.52;;;21.50;63.70;;;;;;5109580;28;20024;-86
2023/07/07 04:44:04;;;;;;;0.82;0.82;;;21.50;63.70;;;;;;5076275;28;20126;-85
2023/07/07 04:46:50;;;;;;;0.93;0.55;;;21.50;63.80;;;;;;5092804;28;20458;-86
2023/07/07 04:49:18;;;;;;;1.10;0.70;;;21.50;64.00;;;;;;5092967;28;20034;-81
2023/07/07 04:51:44;;;;;;;1.08;0.55;;;21.50;63.70;;;;;;5075851;28;20106;-85
2023/07/07 04:54:12;;;;;;;;;;;21.50;63.80;;;;;;5093537;28;20194;-86
2023/07/07 04:56:38;;;;;;;0.73;0.55;;;21.50;63.30;;;;;;5092474;28;20330;-82
2023/07/07 04:59:04;;;;;;;;;;;21.50;64.40;;;;;;5093409;28;20028;-86
2023/07/07 05:01:31;;;;;;;0.33;0.33;;;21.50;64.00;;;;;;5092126;28;20369;-80
2023/07/07 05:04:18;;;;;;;0.75;0.52;;;21.60;63.60;;;;;;5075554;28;20035;-84
2023/07/07 05:06:44;;;;;;;0.98;0.60;;;21.60;63.20;;;;;;5092141;28;20500;-80
2023/07/07 05:09:12;;;;;;;;;;;21.60;63.10;;;;;;5076506;28;20082;-86
2023/07/07 05:11:38;;;;;;;0.63;0.40;;;21.70;62.90;;;;;;5093053;28;19916;-85
2023/07/07 05:14:04;;;;;;;;;;;21.70;62.60;;;;;;5093092;28;20032;-86
2023/07/07 05:16:52;;;;;;;0.25;0.25;;;21.80;62.30;;;;;;5093549;28;19969;-86
2023/07/07 05:19:18;;;;;;;0.45;0.45;;;21.90;61.80;;;;;;5075421;28;20109;-81
2023/07/07 05:21:44;;;;;;;;;;;21.90;62.00;;;;;;5092820;28;20337;-86
2023/07/07 05:24:10;;;;;;;1.13;0.68;;;21.90;61.90;;;;;;5075454;28;19916;-80
2023/07/07 05:26:36;;;;;;;;;;;22.00;61.70;;;;;;5093249;28;20140;-81
2023/07/07 05:29:04;;;;;;;0.52;0.52;;;22.10;61.90;;;;;;5074542;28;19963;-82
2023/07/07 05:31:32;;;;;;;0.82;0.57;;;22.10;61.50;;;;;;5091877;28;20059;-80
2023/07/07 05:33:58;;;;;;;0.90;0.60;;;22.10;61.60;;;;;;5075283;28;20024;-85
2023/07/07 05:36:24;;;;;;;0.43;0.40;;;22.10;61.80;;;;;;5092255;28;20039;-86
2023/07/07 05:38:50;;;;;;;;;;;22.20;61.50;;;;;;5092812;28;20081;-86
2023/07/07 05:41:16;;;;;;;2.60;0.98;;;22.20;61.40;;;;;;5091941;28;19915;-85
2023/07/07 05:43:42;;;;;;;0.35;0.35;;;22.30;60.40;;;;;;5092102;28;20033;-84
2023/07/07 05:46:27;;;;;;;;;;;22.30;61.50;;;;;;5077861;28;20066;-80
2023/07/07 05:48:53;;;;;;;1.25;0.80;;;22.40;61.00;;;;;;5067976;28;19924;-85
2023/07/07 05:51:19;;;;;;;;;;;22.40;60.50;;;;;;5093870;28;20024;-81
2023/07/07 05:53:48;;;;;;;0.53;0.30;;;22.50;60.50;;;;;;5101226;28;19974;-81
2023/07/07 05:56:33;;;;;;;0.28;0.28;;;22.50;60.80;;;;;;5066232;28;20028;-85
2023/07/07 05:58:59;;;;;;;0.77;0.52;;;22.60;60.50;;;;;;5089088;28;20506;-85
2023/07/07 06:01:25;;;;;;;;;;;22.60;60.30;;;;;;5102494;28;20027;-85
2023/07/07 06:03:51;;;;;;;0.98;0.30;;;22.70;60.40;;;;;;5085593;28;19919;-85
2023/07/07 06:06:17;;;;;;;0.68;0.40;;;22.70;60.00;;;;;;5100930;28;20059;-80
2023/07/07 06:08:43;;;;;;;0.20;0.20;;;22.70;60.00;;;;;;5084670;28;20442;-84
2023/07/07 06:11:09;;;;;;;;;;;22.80;60.00;;;;;;5101401;28;20078;-80
2023/07/07 06:13:35;;;;;;;0.35;0.35;;;22.70;58.00;;;;;;5085746;28;20064;-81
2023/07/07 06:16:02;;;;;;;1.00;0.65;;;22.70;58.90;;;;;;5095687;28;20120;-82
2023/07/07 06:18:28;;;;;;;0.50;0.50;;;22.70;58.80;;;;;;5102181;28;20043;-80
2023/07/07 06:20:59;;;;;;;0.47;0.25;;;22.70;58.20;;;;;;5084066;28;20051;-84
2023/07/07 06:23:26;;;;;;;1.50;1.00;;;22.80;57.80;;;;;;5085146;28;20047;-80
2023/07/07 06:25:53;;;;;;;1.23;0.95;;;22.80;57.50;;;;;;5101230;28;20484;-84
2023/07/07 06:28:19;;;;;;;0.98;0.80;;;22.90;58.60;;;;;;5101823;28;20384;-80
2023/07/07 06:31:04;;;;;;;0.43;0.30;;;22.90;57.20;;;;;;5088762;28;20033;-84
2023/07/07 06:33:30;;;;;;;0.52;0.47;;;22.90;57.20;;;;;;5088909;28;20039;-79
2023/07/07 06:35:56;;;;;;;;;;;22.80;56.80;;;;;;5065160;28;20028;-87
2023/07/07 06:38:22;;;;;;;1.55;0.80;;;22.80;57.00;;;;;;5104471;28;19916;-81
2023/07/07 06:40:48;;;;;;;;;;;22.80;56.50;;;;;;5110891;27;20490;-80
2023/07/07 06:43:18;;;;;;;0.75;0.57;;;22.90;56.70;;;;;;5129792;27;19958;-83
2023/07/07 06:45:48;;;;;;;0.45;0.40;;;22.80;55.90;;;;;;5128467;27;20049;-80
2023/07/07 06:48:14;;;;;;;0.45;0.45;;;22.80;55.70;;;;;;5098688;28;20070;-85
2023/07/07 06:50:42;;;;;;;0.13;0.13;;;22.90;55.70;;;;;;5106652;27;20536;-85
2023/07/07 06:53:10;;;;;;;1.17;0.47;;;22.90;55.60;;;;;;5089080;28;20044;-86
2023/07/07 06:55:38;;;;;;;0.45;0.45;;;22.90;55.80;;;;;;5106187;28;20084;-85
2023/07/07 06:58:04;;;;;;;0.73;0.20;;;23.00;55.50;;;;;;5088626;28;20049;-81
2023/07/07 07:00:31;;;;;;;1.10;0.77;;;23.00;55.50;;;;;;5087981;28;20069;-81
2023/07/07 07:02:58;;;;;;;1.65;0.50;;;23.00;54.90;;;;;;5105696;28;20037;-83
2023/07/07 07:05:24;;;;;;;0.68;0.57;;;23.10;55.50;;;;;;5105504;28;20097;-81
2023/07/07 07:07:50;;;;;;;0.25;0.25;;;23.20;55.30;;;;;;5105790;28;20053;-81
2023/07/07 07:10:16;;;;;;;1.67;0.98;;;23.30;55.60;;;;;;5105317;28;20051;-86
2023/07/07 07:12:43;;;;;;;1.08;0.60;;;23.30;55.70;;;;;;5105741;28;20027;-83
2023/07/07 07:15:10;;;;;;;0.75;0.47;;;23.30;55.70;;;;;;5088577;28;20121;-82
2023/07/07 07:17:37;;;;;;;0.65;0.50;;;23.30;54.90;;;;;;5088500;28;20434;-87
2023/07/07 07:20:07;;;;;;;0.38;0.38;;;23.30;55.00;;;;;;5104888;28;20395;-86
2023/07/07 07:22:33;;;;;;;0.80;0.50;;;23.20;55.30;;;;;;5105055;28;20603;-80
2023/07/07 07:24:59;;;;;;;0.75;0.50;;;23.20;55.50;;;;;;5119728;27;20088;-79
2023/07/07 07:27:25;;;;;;;;;;;23.20;55.60;;;;;;5109420;27;20023;-81
2023/07/07 07:29:51;;;;;;;0.30;0.30;;;23.10;55.80;;;;;;5125450;27;20459;-86
2023/07/07 07:32:18;;;;;;;0.50;0.32;;;23.10;55.60;;;;;;5069108;28;20039;-80
2023/07/07 07:34:44;;;;;;;0.20;0.20;;;23.10;55.00;;;;;;5084751;28;20138;-80
2023/07/07 07:37:11;;;;;;;0.35;0.35;;;23.10;55.60;;;;;;5083935;28;20031;-85
2023/07/07 07:39:37;;;;;;;0.90;0.52;;;23.10;55.20;;;;;;5086381;28;20499;-82
2023/07/07 07:42:03;;;;;;;0.20;0.20;;;23.10;54.90;;;;;;5088639;28;20036;-83
2023/07/07 07:44:30;;;;;;;2.30;0.45;;;23.20;54.20;;;;;;5070313;28;20427;-80
2023/07/07 07:46:58;;;;;;;0.77;0.70;;;23.30;54.50;;;;;;5086424;28;20036;-85
2023/07/07 07:49:27;;;;;;;1.10;0.55;;;23.30;54.40;;;;;;5087035;28;20051;-85
2023/07/07 07:51:53;;;;;;;0.30;0.30;;;23.40;54.20;;;;;;5085456;28;20390;-85
2023/07/07 07:54:21;;;;;;;0.35;0.35;;;23.40;53.40;;;;;;5087951;28;20111;-84
2023/07/07 07:56:48;;;;;;;1.15;0.75;;;23.50;53.30;;;;;;5093646;28;20072;-80
2023/07/07 07:59:14;;;;;;;0.77;0.40;;;23.60;53.10;;;;;;5107891;28;20047;-80
2023/07/07 08:01:40;;;;;;;0.57;0.47;;;23.70;53.30;;;;;;5083098;28;20032;-79
2023/07/07 08:04:07;;;;;;;0.68;0.60;;;23.80;52.50;;;;;;5087009;28;20043;-80
2023/07/07 08:06:34;;;;;;;1.50;0.80;;;23.80;52.00;;;;;;5067329;28;20028;-80
2023/07/07 08:09:00;;;;;;;1.35;0.60;;;23.90;52.10;;;;;;5098790;28;20080;-83
2023/07/07 08:11:47;;;;;;;0.30;0.30;;;24.00;51.40;;;;;;5089237;28;20115;-80
2023/07/07 08:14:32;;;;;;;0.68;0.57;;;24.10;51.70;;;;;;5093128;28;20074;-80
2023/07/07 08:17:04;;;;;;;1.02;0.70;;;24.20;51.00;;;;;;5086338;28;20043;-84
2023/07/07 08:19:34;;;;;;;1.00;0.90;;;24.30;50.80;;;;;;5085243;28;20107;-81
2023/07/07 08:22:01;;;;;;;0.63;0.55;;;24.40;50.40;;;;;;5085372;28;20111;-81
2023/07/07 08:24:28;;;;;;;1.70;0.43;;;24.50;49.60;;;;;;5085753;28;20486;-79
2023/07/07 08:26:54;;;;;;;0.30;0.30;;;24.60;49.50;;;;;;5079389;28;20031;-83
2023/07/07 08:29:20;;;;;;;;;;;24.80;49.10;;;;;;5088985;28;20028;-83
2023/07/07 08:31:46;;;;;;;0.70;0.45;;;25.00;48.90;;;;;;5088182;28;20353;-80
2023/07/07 08:34:12;;;;;;;;;;;25.10;48.30;;;;;;5106762;28;20043;-82
2023/07/07 08:36:38;;;;;;;0.30;0.20;;;25.30;48.20;;;;;;5105789;28;19934;-80
2023/07/07 08:39:23;;;;;;;1.60;0.32;;;25.30;46.60;;;;;;5106047;28;20115;-84
2023/07/07 08:42:00;;;;;;;0.43;0.30;;;25.30;46.50;;;;;;5106554;27;20114;-80
2023/07/07 08:44:30;;;;;;;1.00;0.43;;;25.30;46.20;;;;;;5087497;28;20051;-80
2023/07/07 08:47:40;;;;;;;0.35;0.35;;;25.40;46.00;;;;;;5099166;28;20028;-83
2023/07/07 08:50:45;;;;;;;0.32;0.32;;;25.50;45.80;;;;;;5087601;27;20028;-81
2023/07/07 08:54:07;;;;;;;2.47;0.60;;;25.70;45.70;;;;;;5085438;28;20043;-81
2023/07/07 08:56:56;;;;;;;0.28;0.28;;;26.00;45.50;;;;;;5084780;28;20036;-82
2023/07/07 08:59:45;;;;;;;1.35;0.47;;;26.40;44.70;;;;;;5089602;28;20036;-81
2023/07/07 09:02:53;;;;;;;0.35;0.28;;;26.80;43.60;;;;;;5086977;28;20035;-81
2023/07/07 09:06:08;;;;;;;1.95;1.27;;;27.30;43.40;;;;;;5084529;28;20028;-81
2023/07/07 09:08:55;;;;;;;0.20;0.20;;;27.40;42.20;;;;;;5105664;28;20092;-80
2023/07/07 09:12:18;;;;;;;0.35;0.35;;;27.70;41.80;;;;;;5105264;28;20086;-80
2023/07/07 09:14:48;;;;;;;0.40;0.30;;;27.80;41.40;;;;;;5084492;28;20493;-82
2023/07/07 09:17:54;;;;;;;1.75;0.52;;;28.00;41.20;;;;;;5075849;28;20024;-81
2023/07/07 09:20:25;;;;;;;0.20;0.20;;;28.00;41.00;;;;;;5066818;28;20035;-85
2023/07/07 09:23:17;;;;;;;0.30;0.30;;;28.10;40.00;;;;;;5083660;28;20036;-85
2023/07/07 09:26:14;;;;;;;1.77;1.08;;;28.30;39.90;;;;;;5072058;28;20543;-85
2023/07/07 09:28:48;;;;;;;1.10;0.93;;;28.90;38.50;;;;;;5106075;27;20176;-82
2023/07/07 09:31:23;;;;;;;0.40;0.38;;;29.40;37.10;;;;;;5078446;28;20395;-80
2023/07/07 09:33:49;;;;;;;1.08;0.30;;;29.70;36.50;;;;;;5087011;28;20571;-84
2023/07/07 09:36:29;;;;;;;0.90;0.50;;;30.00;35.60;;;;;;5086993;28;20122;-85
2023/07/07 09:39:33;;;;;;;2.33;0.82;;;30.00;36.20;;;;;;5088642;28;20028;-81
2023/07/07 09:42:55;;;;;;;0.35;0.35;;;30.00;36.00;;;;;;5105468;28;20450;-83
2023/07/07 09:46:03;;;;;;;1.08;0.68;;;30.10;35.60;;;;;;5085012;28;20048;-83
2023/07/07 09:48:42;;;;;;;0.80;0.43;;;30.10;35.20;;;;;;5083928;28;20059;-84
2023/07/07 09:51:13;;;;;;;0.38;0.30;;;30.20;33.70;;;;;;5083792;28;20032;-84
2023/07/07 09:53:41;;;;;;;0.57;0.47;;;30.50;34.00;;;;;;5084089;28;20431;-81
2023/07/07 09:56:18;;;;;;;0.65;0.65;;;30.80;33.70;;;;;;5082867;28;20032;-81
2023/07/07 09:58:54;;;;;;;1.17;1.08;;;31.00;33.30;;;;;;5083657;28;20121;-81
2023/07/07 10:01:21;;;;;;;0.60;0.55;;;31.20;33.20;;;;;;5083989;28;20028;-83
2023/07/07 10:03:48;;;;;;;1.92;1.17;;;31.40;33.00;;;;;;5076022;28;20036;-84
2023/07/07 10:06:47;;;;;;;1.17;0.73;;;31.70;32.50;;;;;;5084624;28;20039;-85
2023/07/07 10:09:14;;;;;;;1.65;0.82;;;31.80;32.50;;;;;;5083851;28;20036;-81
2023/07/07 10:11:43;;;;;;;0.38;0.38;;;31.70;31.60;;;;;;5084223;28;20047;-81
2023/07/07 10:14:14;;;;;;;0.40;0.40;;;31.70;32.20;;;;;;5067184;28;20440;-81
2023/07/07 10:17:06;;;;;;;3.30;0.73;;;31.60;32.50;;;;;;5087380;28;20460;-81
2023/07/07 10:19:53;;;;;;;0.40;0.40;;;31.70;32.60;;;;;;5088453;28;20075;-82
2023/07/07 10:22:20;;;;;;;0.77;0.65;;;33.00;31.60;;;;;;5087452;28;20093;-81
2023/07/07 10:24:46;;;;;;;0.35;0.35;;;34.30;30.00;;;;;;5070205;28;20028;-82
2023/07/07 10:27:32;;;;;;;1.08;0.95;;;35.50;29.10;;;;;;5086784;28;20400;-81
2023/07/07 10:30:03;;;;;;;1.08;0.85;;;36.30;28.30;;;;;;5104236;28;20061;-85
2023/07/07 10:32:29;;;;;;;1.27;0.85;;;36.50;27.40;;;;;;5091106;28;20042;-82
2023/07/07 10:35:33;;;;;;;1.70;1.27;;;36.90;26.60;;;;;;5084084;28;20024;-85
2023/07/07 10:38:18;;;;;;;0.30;0.30;;;37.40;26.70;;;;;;5067982;28;20036;-82
2023/07/07 10:40:45;;;;;;;0.73;0.70;;;38.90;24.70;;;;;;5083912;28;20036;-84
2023/07/07 10:43:31;;;;;;;0.80;0.47;;;39.80;23.70;;;;;;5068329;28;20032;-87
2023/07/07 10:45:57;;;;;;;1.73;0.70;;;40.70;24.40;;;;;;5071196;28;20216;-91
2023/07/07 10:48:23;;;;;;;1.33;1.02;;;41.40;22.70;;;;;;5086234;28;20066;-82
2023/07/07 10:51:27;;;;;;;0.88;0.80;;;42.30;21.70;;;;;;5085491;28;20485;-85
2023/07/07 10:54:49;;;;;;;2.45;1.13;;;43.00;20.80;;;;;;5085849;28;20044;-87
2023/07/07 10:57:53;;;;;;;2.42;1.45;;;43.70;19.20;;;;;;5088563;27;20466;-85
2023/07/07 11:01:17;;;;;;;0.75;0.75;;;44.40;18.60;;;;;;5094695;28;20040;-83
2023/07/07 11:04:20;;;;;;;1.27;1.02;;;45.00;17.30;;;;;;5099165;28;20040;-86
2023/07/07 11:07:01;;;;;;;0.80;0.68;;;45.50;16.60;;;;;;5084657;28;20032;-83
2023/07/07 11:09:59;;;;;;;1.20;1.10;;;46.20;16.60;;;;;;5084547;28;20068;-85
2023/07/07 11:12:47;;;;;;;1.08;0.95;;;46.30;16.30;;;;;;5084882;28;20131;-87
2023/07/07 11:15:31;;;;;;;1.25;1.05;;;46.40;15.80;;;;;;5109333;27;20419;-86
2023/07/07 11:18:45;;;;;;;3.00;1.98;;;46.30;15.20;;;;;;5085209;28;20032;-84
2023/07/07 11:21:38;;;;;;;1.45;1.35;;;46.40;15.70;;;;;;5078736;28;20037;-87
2023/07/07 11:25:00;;;;;;;1.08;0.93;;;45.20;16.30;;;;;;5085508;28;20128;-86
2023/07/07 11:28:10;;;;;;;2.58;1.50;;;43.60;16.90;;;;;;5084362;28;20040;-85
2023/07/07 11:31:22;;;;;;;2.03;1.55;;;42.50;17.40;;;;;;5102586;27;20139;-84
2023/07/07 11:34:23;;;;;;;1.08;0.80;;;41.20;18.30;;;;;;5090345;28;20072;-83
2023/07/07 11:37:08;;;;;;;1.02;0.93;;;40.50;19.00;;;;;;5101820;28;20043;-89
2023/07/07 11:39:55;;;;;;;1.90;1.27;;;40.80;19.20;;;;;;5103671;28;20070;-87
2023/07/07 11:42:56;;;;;;;1.15;0.82;;;41.50;19.00;;;;;;5085525;28;20032;-86
2023/07/07 11:46:02;;;;;;;0.98;0.88;;;42.20;18.20;;;;;;5087919;28;20097;-82
2023/07/07 11:48:58;;;;;;;1.20;0.95;;;41.90;17.40;;;;;;5102621;28;20072;-87
2023/07/07 11:52:22;;;;;;;0.47;0.40;;;42.80;17.50;;;;;;5099143;28;20144;-82
2023/07/07 11:55:44;;;;;;;1.23;0.93;;;42.70;17.20;;;;;;5087971;28;20409;-86
2023/07/07 11:59:06;;;;;;;0.73;0.73;;;43.40;17.30;;;;;;5085867;28;20530;-86
2023/07/07 12:01:38;;;;;;;0.85;0.85;;;45.00;16.80;;;;;;5086026;27;20027;-80
2023/07/07 12:04:46;;;;;;;3.28;2.05;;;45.00;16.00;;;;;;5072799;28;20461;-85
2023/07/07 12:07:51;;;;;;;1.25;1.15;;;44.60;16.10;;;;;;5086668;28;20477;-85
2023/07/07 12:10:44;;;;;;;1.75;1.63;;;46.00;15.40;;;;;;5076365;28;20047;-82
2023/07/07 12:13:19;;;;;;;0.95;0.90;;;47.10;14.70;;;;;;5087138;28;20032;-84
2023/07/07 12:15:53;;;;;;;1.30;1.20;;;48.00;14.20;;;;;;5086537;28;20032;-85
2023/07/07 12:18:40;;;;;;;1.63;1.20;;;48.70;13.30;;;;;;5085636;27;20035;-85
2023/07/07 12:21:30;;;;;;;1.65;1.55;;;49.00;13.00;;;;;;5073690;28;20089;-87
2023/07/07 12:24:56;;;;;;;1.17;1.08;;;49.50;13.00;;;;;;5089312;27;20059;-87
2023/07/07 12:27:46;;;;;;;1.23;1.08;;;50.20;12.40;;;;;;5086662;28;20038;-89
2023/07/07 12:30:28;;;;;;;2.50;1.40;;;50.70;12.10;;;;;;5089675;28;20032;-89
2023/07/07 12:32:55;;;;;;;1.50;1.40;;;51.10;12.00;;;;;;5107818;28;20047;-86
2023/07/07 12:35:36;;;;;;;1.70;1.55;;;51.40;11.50;;;;;;5104938;28;20032;-84
2023/07/07 12:38:21;;;;;;;1.55;1.40;;;51.80;11.00;;;;;;5101421;28;20055;-87
2023/07/07 12:40:48;;;;;;;2.42;1.83;;;52.20;10.90;;;;;;5091153;28;20481;-85
2023/07/07 12:43:37;;;;;;;2.58;1.50;;;52.30;10.30;;;;;;5099294;28;20055;-84
2023/07/07 12:46:24;;;;;;;2.05;1.85;;;52.10;10.60;;;;;;5086103;28;20540;-84
2023/07/07 12:48:54;;;;;;;1.75;1.63;;;52.40;10.50;;;;;;5090721;28;20647;-83
2023/07/07 12:51:22;;;;;;;2.13;1.80;;;52.60;10.40;;;;;;5105139;28;20042;-84
2023/07/07 12:53:53;;;;;;;1.90;1.70;;;52.60;10.10;;;;;;5098781;28;20584;-88
2023/07/07 12:56:24;;;;;;;2.15;1.90;;;52.70;10.20;;;;;;5097951;27;20027;-86
2023/07/07 12:58:53;;;;;;;3.28;2.97;;;52.80;10.10;;;;;;5099068;28;20142;-86
2023/07/07 13:01:19;;;;;;;2.17;1.83;;;52.80;10.00;;;;;;5086777;28;20383;-84
2023/07/07 13:04:34;;;;;;;1.80;1.63;;;52.80;9.90;;;;;;5106388;28;20123;-82
2023/07/07 13:07:03;;;;;;;2.08;1.58;;;52.70;9.80;;;;;;5105868;28;20191;-82
2023/07/07 13:09:46;;;;;;;1.98;1.70;;;52.70;9.60;;;;;;5104980;27;20073;-86
2023/07/07 13:12:49;;;;;;;2.15;1.77;;;52.40;10.00;;;;;;5074103;28;20039;-85
2023/07/07 13:15:34;;;;;;;2.03;1.65;;;52.20;10.10;;;;;;5098917;28;20028;-86
2023/07/07 13:18:01;;;;;;;3.55;2.17;;;51.60;9.30;;;;;;5106095;28;20023;-86
2023/07/07 13:20:27;;;;;;;1.83;1.52;;;51.10;10.20;;;;;;5105524;28;20031;-82
2023/07/07 13:23:20;;;;;;;1.67;1.50;;;50.10;10.90;;;;;;5106655;28;20408;-83
2023/07/07 13:25:47;;;;;;;1.15;1.05;;;48.60;11.30;;;;;;5104344;27;20059;-82
2023/07/07 13:28:16;;;;;;;1.20;1.10;;;46.80;12.60;;;;;;5088867;28;20032;-86
2023/07/07 13:31:01;;;;;;;1.35;1.25;;;45.40;13.70;;;;;;5081875;28;20028;-87
2023/07/07 13:33:30;;;;;;;0.85;0.85;;;44.10;14.80;;;;;;5077139;28;20119;-82
2023/07/07 13:35:59;;;;;;;1.63;1.42;;;43.10;15.30;;;;;;5086435;28;20024;-88
2023/07/07 13:38:32;;;;;;;1.48;1.13;;;42.30;15.80;;;;;;5085925;28;20032;-83
2023/07/07 13:40:58;;;;;;;0.70;0.70;;;41.40;15.90;;;;;;5085829;28;20085;-82
2023/07/07 13:43:45;;;;;;;0.73;0.50;;;40.70;16.70;;;;;;5082305;28;20055;-88